Time;durP1;ratioP1;P1;durP2;ratioP2;P2;SDS_P1;SDS_P2;PMS_P1;PMS_P2;Temp;Humidity;BMP_temperature;BMP_pressure;BME280_temperature;BME280_humidity;BME280_pressure;Samples;Min_cycle;Max_cycle;Signal;HPM_P1;HPM_P2
2024/03/08 00:00:42;;;;;;;24.10;17.35;;;2.40;99.90;;;;;;5100472;27;20043;-67
2024/03/08 00:03:10;;;;;;;22.15;17.38;;;2.40;99.90;;;;;;5107929;27;20097;-67
2024/03/08 00:05:38;;;;;;;23.23;16.60;;;2.30;99.90;;;;;;5112208;27;20127;-67
2024/03/08 00:08:05;;;;;;;24.77;18.40;;;2.30;99.90;;;;;;5111254;27;20443;-67
2024/03/08 00:10:30;;;;;;;26.60;17.23;;;2.30;99.90;;;;;;5106998;27;20039;-67
2024/03/08 00:12:57;;;;;;;25.17;17.33;;;2.30;99.90;;;;;;5110555;27;20130;-67
2024/03/08 00:15:23;;;;;;;24.48;18.05;;;2.40;99.90;;;;;;5109967;27;20074;-67
2024/03/08 00:17:49;;;;;;;24.55;17.60;;;2.20;99.90;;;;;;5107983;27;20063;-67
2024/03/08 00:20:17;;;;;;;23.27;18.25;;;2.20;99.90;;;;;;5106706;27;20056;-67
2024/03/08 00:22:43;;;;;;;26.25;18.20;;;2.20;99.90;;;;;;5111144;27;20039;-67
2024/03/08 00:25:09;;;;;;;26.08;18.17;;;2.10;99.90;;;;;;5109296;27;20493;-67
2024/03/08 00:27:35;;;;;;;27.42;18.10;;;2.10;99.90;;;;;;5103051;27;20031;-67
2024/03/08 00:30:02;;;;;;;23.60;18.15;;;2.10;99.90;;;;;;5107811;27;20082;-67
2024/03/08 00:32:27;;;;;;;26.17;18.00;;;2.10;99.90;;;;;;5118830;27;20043;-67
2024/03/08 00:34:54;;;;;;;26.92;19.33;;;2.10;99.90;;;;;;5103060;27;20047;-67
2024/03/08 00:37:21;;;;;;;25.05;17.92;;;2.10;99.90;;;;;;5106428;27;20040;-67
2024/03/08 00:39:51;;;;;;;23.38;17.40;;;2.00;99.90;;;;;;5140896;27;20036;-67
2024/03/08 00:42:17;;;;;;;23.40;18.20;;;2.00;99.90;;;;;;5106156;27;20050;-67
2024/03/08 00:44:43;;;;;;;30.38;20.88;;;2.00;99.90;;;;;;5108608;27;20046;-67
2024/03/08 00:47:09;;;;;;;29.27;19.02;;;2.00;99.90;;;;;;5111875;27;20027;-67
2024/03/08 00:49:36;;;;;;;29.20;19.27;;;1.90;99.90;;;;;;5105636;27;20050;-67
2024/03/08 00:52:02;;;;;;;31.10;19.25;;;2.00;99.90;;;;;;5101619;27;20496;-67
2024/03/08 00:54:28;;;;;;;25.60;18.52;;;1.90;99.90;;;;;;5104280;27;20036;-67
2024/03/08 00:56:53;;;;;;;26.23;19.75;;;1.90;99.90;;;;;;5098871;27;20044;-67
2024/03/08 00:59:19;;;;;;;27.58;18.20;;;1.90;99.90;;;;;;5127775;27;20031;-67
2024/03/08 01:01:45;;;;;;;27.08;18.88;;;1.90;99.90;;;;;;5107763;27;20050;-67
2024/03/08 01:04:11;;;;;;;24.45;19.58;;;1.90;99.90;;;;;;5106902;27;20427;-67
2024/03/08 01:06:37;;;;;;;30.10;19.08;;;1.90;99.90;;;;;;5104094;27;20076;-67
2024/03/08 01:09:02;;;;;;;28.75;20.65;;;1.90;99.90;;;;;;5112506;27;20044;-67
2024/03/08 01:11:28;;;;;;;30.27;20.25;;;1.90;99.90;;;;;;5113125;27;20126;-67
2024/03/08 01:13:54;;;;;;;29.13;18.42;;;1.90;99.90;;;;;;5106936;27;20336;-67
2024/03/08 01:16:21;;;;;;;26.02;18.70;;;1.90;99.90;;;;;;5106921;27;20490;-67
2024/03/08 01:18:47;;;;;;;26.13;18.45;;;1.90;99.90;;;;;;5104880;27;20039;-67
2024/03/08 01:21:12;;;;;;;25.55;17.85;;;1.80;99.90;;;;;;5106759;27;20112;-67
2024/03/08 01:23:38;;;;;;;26.20;18.85;;;1.90;99.90;;;;;;5105380;27;20526;-67
2024/03/08 01:26:04;;;;;;;25.10;18.58;;;1.80;99.90;;;;;;5105673;27;20043;-67
2024/03/08 01:28:31;;;;;;;25.83;18.30;;;1.80;99.90;;;;;;5105126;27;20059;-67
2024/03/08 01:30:57;;;;;;;28.88;19.70;;;1.80;99.90;;;;;;5104278;27;20055;-67
2024/03/08 01:33:27;;;;;;;31.00;19.10;;;1.90;99.90;;;;;;5100788;27;20039;-67
2024/03/08 01:35:55;;;;;;;24.00;18.00;;;1.80;99.90;;;;;;5106786;27;20031;-67
2024/03/08 01:38:21;;;;;;;30.25;19.60;;;1.80;99.90;;;;;;5102445;27;20132;-67
2024/03/08 01:40:47;;;;;;;24.67;19.65;;;1.80;99.90;;;;;;5106689;27;20489;-67
2024/03/08 01:43:26;;;;;;;28.08;19.70;;;1.80;99.90;;;;;;5109917;27;20031;-67
2024/03/08 01:45:52;;;;;;;26.67;19.38;;;1.70;99.90;;;;;;5124938;27;20520;-67
2024/03/08 01:48:21;;;;;;;26.65;19.55;;;1.80;99.90;;;;;;5139808;27;20064;-67
2024/03/08 01:50:47;;;;;;;28.00;19.55;;;1.70;99.90;;;;;;5124404;27;20039;-67
2024/03/08 01:53:15;;;;;;;25.77;19.75;;;1.60;99.90;;;;;;5144864;27;20034;-67
2024/03/08 01:55:41;;;;;;;26.67;20.50;;;1.70;99.90;;;;;;5112506;27;20039;-67
2024/03/08 01:58:08;;;;;;;26.13;19.02;;;1.60;99.90;;;;;;5111615;27;20031;-67
2024/03/08 02:00:36;;;;;;;29.00;20.90;;;1.60;99.90;;;;;;5142922;27;20046;-67
2024/03/08 02:03:02;;;;;;;24.75;19.45;;;1.60;99.90;;;;;;5124980;27;20061;-67
2024/03/08 02:05:28;;;;;;;27.20;19.13;;;1.60;99.90;;;;;;5140730;27;20047;-67
2024/03/08 02:07:54;;;;;;;24.90;19.48;;;1.60;99.90;;;;;;5127902;27;20047;-67
2024/03/08 02:10:20;;;;;;;25.77;18.95;;;1.70;99.90;;;;;;5112035;27;20047;-67
2024/03/08 02:12:48;;;;;;;27.65;20.33;;;1.60;99.90;;;;;;5143079;27;20054;-67
2024/03/08 02:15:14;;;;;;;24.80;19.45;;;1.60;99.90;;;;;;5139308;27;20046;-67
2024/03/08 02:17:41;;;;;;;26.02;19.55;;;1.60;99.90;;;;;;5117660;27;20488;-67
2024/03/08 02:20:09;;;;;;;26.60;19.50;;;1.60;99.90;;;;;;5129153;27;20387;-67
2024/03/08 02:22:34;;;;;;;34.38;20.67;;;1.50;99.90;;;;;;5115825;27;20043;-67
2024/03/08 02:25:02;;;;;;;25.05;19.00;;;1.60;99.90;;;;;;5116791;27;20051;-67
2024/03/08 02:27:29;;;;;;;26.70;20.45;;;1.60;99.90;;;;;;5130118;27;20035;-67
2024/03/08 02:29:56;;;;;;;29.15;19.00;;;1.60;99.90;;;;;;5113481;27;20484;-67
2024/03/08 02:32:22;;;;;;;29.27;19.73;;;1.60;99.90;;;;;;5132656;27;20035;-66
2024/03/08 02:34:49;;;;;;;25.35;19.10;;;1.60;99.90;;;;;;5140273;27;21004;-67
2024/03/08 02:37:15;;;;;;;26.17;18.60;;;1.70;99.90;;;;;;5149327;27;20030;-67
2024/03/08 02:39:41;;;;;;;27.10;19.25;;;1.60;99.90;;;;;;5115851;27;20121;-67
2024/03/08 02:42:07;;;;;;;28.90;19.77;;;1.60;99.90;;;;;;5115366;27;20163;-67
2024/03/08 02:44:33;;;;;;;25.20;18.80;;;1.60;99.90;;;;;;5108051;27;20042;-67
2024/03/08 02:46:59;;;;;;;28.60;20.15;;;1.60;99.90;;;;;;5098754;27;20434;-67
2024/03/08 02:49:26;;;;;;;28.50;18.77;;;1.60;99.90;;;;;;5093985;27;20505;-67
2024/03/08 02:51:52;;;;;;;25.05;18.98;;;1.60;99.90;;;;;;5091567;27;20066;-67
2024/03/08 02:54:19;;;;;;;29.20;20.10;;;1.60;99.90;;;;;;5097204;27;20040;-67
2024/03/08 02:56:46;;;;;;;28.23;19.63;;;1.60;99.90;;;;;;5097235;27;20123;-67
2024/03/08 02:59:12;;;;;;;29.75;20.90;;;1.70;99.90;;;;;;5108817;27;20233;-67
2024/03/08 03:01:39;;;;;;;28.25;20.55;;;1.70;99.90;;;;;;5092903;27;20421;-67
2024/03/08 03:04:04;;;;;;;29.63;19.98;;;1.70;99.90;;;;;;5095467;27;20622;-67
2024/03/08 03:06:31;;;;;;;27.75;20.85;;;1.60;99.90;;;;;;5094160;27;20044;-67
2024/03/08 03:08:57;;;;;;;26.75;20.48;;;1.50;99.90;;;;;;5095590;27;20039;-67
2024/03/08 03:11:23;;;;;;;29.35;20.58;;;1.50;99.90;;;;;;5096867;27;20043;-67
2024/03/08 03:13:49;;;;;;;27.77;20.40;;;1.50;99.90;;;;;;5095500;27;20039;-67
2024/03/08 03:16:19;;;;;;;25.23;19.23;;;1.50;99.90;;;;;;5097375;27;20053;-67
2024/03/08 03:18:45;;;;;;;25.85;19.90;;;1.50;99.90;;;;;;5101878;27;20038;-67
2024/03/08 03:21:12;;;;;;;26.25;19.58;;;1.50;99.90;;;;;;5111481;27;20031;-67
2024/03/08 03:23:39;;;;;;;29.40;19.98;;;1.40;99.90;;;;;;5114728;27;20035;-67
2024/03/08 03:26:07;;;;;;;28.60;19.70;;;1.40;99.90;;;;;;5095610;27;20239;-67
2024/03/08 03:28:33;;;;;;;31.33;19.95;;;1.40;99.90;;;;;;5112024;27;20052;-67
2024/03/08 03:30:59;;;;;;;26.02;18.70;;;1.40;99.90;;;;;;5090485;27;20154;-67
2024/03/08 03:33:25;;;;;;;27.38;20.40;;;1.50;99.90;;;;;;5088426;27;20049;-67
2024/03/08 03:35:52;;;;;;;25.60;19.70;;;1.40;99.90;;;;;;5110726;27;20067;-67
2024/03/08 03:38:17;;;;;;;27.40;20.20;;;1.40;99.90;;;;;;5096166;27;20035;-67
2024/03/08 03:40:45;;;;;;;26.35;19.33;;;1.40;99.90;;;;;;5108092;27;20285;-67
2024/03/08 03:43:10;;;;;;;27.02;19.80;;;1.40;99.90;;;;;;5091314;27;20047;-67
2024/03/08 03:45:36;;;;;;;28.55;20.05;;;1.40;99.90;;;;;;5091179;27;20058;-67
2024/03/08 03:48:03;;;;;;;26.63;19.30;;;1.40;99.90;;;;;;5112852;27;20062;-67
2024/03/08 03:50:29;;;;;;;28.40;17.88;;;1.40;99.90;;;;;;5110811;27;20382;-67
2024/03/08 03:52:54;;;;;;;26.17;19.17;;;1.40;99.90;;;;;;5095568;27;20092;-67
2024/03/08 03:55:21;;;;;;;25.60;17.35;;;1.50;99.90;;;;;;5096369;27;20043;-67
2024/03/08 03:57:47;;;;;;;26.42;19.58;;;1.40;99.90;;;;;;5096104;27;20051;-67
2024/03/08 04:00:13;;;;;;;26.55;18.52;;;1.40;99.90;;;;;;5094980;27;20035;-67
2024/03/08 04:02:39;;;;;;;25.63;19.63;;;1.40;99.90;;;;;;5111718;27;20492;-67
2024/03/08 04:05:06;;;;;;;26.20;19.13;;;1.40;99.90;;;;;;5096480;27;20042;-67
2024/03/08 04:07:32;;;;;;;26.10;18.73;;;1.40;99.90;;;;;;5112954;27;20432;-67
2024/03/08 04:09:57;;;;;;;25.67;19.25;;;1.40;99.90;;;;;;5094725;27;20039;-67
2024/03/08 04:12:23;;;;;;;25.30;18.70;;;1.40;99.90;;;;;;5125347;27;20066;-67
2024/03/08 04:14:49;;;;;;;23.92;18.58;;;1.40;99.90;;;;;;5123317;27;20501;-67
2024/03/08 04:17:15;;;;;;;27.02;18.45;;;1.40;99.90;;;;;;5090910;27;20040;-67
2024/03/08 04:19:40;;;;;;;25.88;18.35;;;1.30;99.90;;;;;;5088266;27;20496;-67
2024/03/08 04:22:07;;;;;;;27.35;18.38;;;1.40;99.90;;;;;;5109686;27;20040;-67
2024/03/08 04:24:33;;;;;;;27.70;19.02;;;1.40;99.90;;;;;;5091857;27;20036;-67
2024/03/08 04:26:59;;;;;;;24.35;18.27;;;1.40;99.90;;;;;;5107145;27;20405;-67
2024/03/08 04:29:24;;;;;;;27.52;17.98;;;1.40;99.90;;;;;;5094613;27;20464;-67
2024/03/08 04:31:54;;;;;;;24.33;18.65;;;1.40;99.90;;;;;;5127305;27;20043;-67
2024/03/08 04:34:20;;;;;;;24.15;17.90;;;1.40;99.90;;;;;;5096539;27;20047;-67
2024/03/08 04:36:47;;;;;;;27.60;17.33;;;1.40;99.90;;;;;;5095042;28;20343;-67
2024/03/08 04:39:13;;;;;;;22.48;17.70;;;1.40;99.90;;;;;;5092737;27;20044;-67
2024/03/08 04:41:39;;;;;;;24.52;17.88;;;1.40;99.90;;;;;;5099092;27;20042;-67
2024/03/08 04:44:05;;;;;;;22.80;17.30;;;1.40;99.90;;;;;;5126550;27;20493;-67
2024/03/08 04:46:31;;;;;;;27.05;17.83;;;1.30;99.90;;;;;;5112982;27;20039;-67
2024/03/08 04:48:58;;;;;;;25.38;18.05;;;1.30;99.90;;;;;;5131227;27;20555;-67
2024/03/08 04:51:25;;;;;;;25.90;18.40;;;1.30;99.90;;;;;;5145812;27;20043;-67
2024/03/08 04:53:50;;;;;;;22.67;17.88;;;1.20;99.90;;;;;;5138515;27;20073;-67
2024/03/08 04:56:16;;;;;;;26.73;18.73;;;1.20;99.90;;;;;;5112519;27;20034;-67
2024/03/08 04:58:41;;;;;;;25.88;16.80;;;1.30;99.90;;;;;;5128196;27;20476;-67
2024/03/08 05:01:10;;;;;;;25.00;18.63;;;1.30;99.90;;;;;;5112739;27;20084;-67
2024/03/08 05:03:35;;;;;;;26.33;17.67;;;1.20;99.90;;;;;;5143702;27;20044;-67
2024/03/08 05:06:01;;;;;;;24.30;18.98;;;1.20;99.90;;;;;;5110220;27;20081;-67
2024/03/08 05:08:26;;;;;;;28.33;19.10;;;1.10;99.90;;;;;;5123811;27;20031;-67
2024/03/08 05:10:52;;;;;;;22.17;17.15;;;1.20;99.90;;;;;;5104592;27;20388;-67
2024/03/08 05:13:18;;;;;;;25.80;18.17;;;1.20;99.90;;;;;;5128348;27;20027;-67
2024/03/08 05:15:47;;;;;;;25.02;17.25;;;1.20;99.90;;;;;;5111680;27;20504;-67
2024/03/08 05:18:14;;;;;;;23.02;17.35;;;1.20;99.90;;;;;;5126648;27;20134;-67
2024/03/08 05:20:41;;;;;;;26.25;18.95;;;1.10;99.90;;;;;;5127425;27;20486;-67
2024/03/08 05:23:07;;;;;;;26.55;19.05;;;1.00;99.90;;;;;;5123552;27;20043;-67
2024/03/08 05:25:32;;;;;;;24.55;19.15;;;1.00;99.90;;;;;;5118728;27;20040;-67
2024/03/08 05:27:58;;;;;;;26.55;18.27;;;1.00;99.90;;;;;;5134922;27;20359;-67
2024/03/08 05:30:23;;;;;;;24.15;17.90;;;1.00;99.90;;;;;;5122240;27;20047;-67
2024/03/08 05:32:49;;;;;;;25.77;17.63;;;1.00;99.90;;;;;;5102380;27;20039;-67
2024/03/08 05:35:16;;;;;;;22.50;17.73;;;1.00;99.90;;;;;;5135655;27;20958;-67
2024/03/08 05:37:44;;;;;;;25.35;18.20;;;1.10;99.90;;;;;;5123884;27;20045;-67
2024/03/08 05:40:10;;;;;;;26.08;17.65;;;1.10;99.90;;;;;;5104423;27;20093;-67
2024/03/08 05:42:36;;;;;;;23.23;18.63;;;1.10;99.90;;;;;;5133567;27;20419;-67
2024/03/08 05:45:03;;;;;;;24.25;17.77;;;1.10;99.90;;;;;;5118309;27;20119;-67
2024/03/08 05:47:29;;;;;;;27.02;18.40;;;1.10;99.90;;;;;;5107038;27;20043;-67
2024/03/08 05:49:55;;;;;;;26.80;18.40;;;1.10;99.90;;;;;;5117865;27;20044;-67
2024/03/08 05:52:21;;;;;;;27.33;18.52;;;1.10;99.90;;;;;;5122069;27;20087;-67
2024/03/08 05:54:47;;;;;;;25.15;18.75;;;1.00;99.90;;;;;;5128180;27;20125;-67
2024/03/08 05:57:16;;;;;;;28.27;17.55;;;1.10;99.90;;;;;;5127671;27;20034;-67
2024/03/08 05:59:44;;;;;;;26.50;20.08;;;1.00;99.90;;;;;;5108235;27;20052;-67
2024/03/08 06:02:09;;;;;;;28.92;19.15;;;1.00;99.90;;;;;;5126192;27;20144;-67
2024/03/08 06:04:35;;;;;;;24.85;18.33;;;1.00;99.90;;;;;;5112022;27;20551;-67
2024/03/08 06:07:03;;;;;;;26.50;18.67;;;1.00;99.90;;;;;;5108072;27;20047;-67
2024/03/08 06:09:29;;;;;;;25.95;18.83;;;1.00;99.90;;;;;;5124924;27;20400;-67
2024/03/08 06:11:54;;;;;;;26.52;19.73;;;0.90;99.90;;;;;;5141095;27;20041;-67
2024/03/08 06:14:20;;;;;;;24.60;19.58;;;0.90;99.90;;;;;;5103255;27;20036;-67
2024/03/08 06:16:46;;;;;;;23.95;17.35;;;0.90;99.90;;;;;;5127145;27;20042;-67
2024/03/08 06:19:13;;;;;;;25.67;18.48;;;1.00;99.90;;;;;;5094132;27;20129;-67
2024/03/08 06:21:39;;;;;;;25.40;17.15;;;1.00;99.90;;;;;;5127322;27;20457;-67
2024/03/08 06:24:05;;;;;;;26.17;18.02;;;1.00;99.90;;;;;;5139967;27;20069;-67
2024/03/08 06:26:30;;;;;;;27.00;19.52;;;1.10;99.90;;;;;;5119939;27;20046;-67
2024/03/08 06:28:57;;;;;;;22.75;17.30;;;1.10;99.90;;;;;;5114505;27;20028;-67
2024/03/08 06:38:50;;;;;;;23.48;16.15;;;1.60;99.90;;;;;;5126588;27;20039;-67
2024/03/08 06:41:16;;;;;;;25.10;17.77;;;1.70;99.90;;;;;;5127529;27;20039;-67
2024/03/08 06:43:47;;;;;;;23.48;17.33;;;1.80;99.90;;;;;;5104807;27;20035;-67
2024/03/08 06:46:15;;;;;;;23.88;17.60;;;2.10;99.90;;;;;;5118232;27;20045;-67
2024/03/08 06:48:40;;;;;;;21.60;16.48;;;2.40;99.90;;;;;;5123222;27;20035;-67
2024/03/08 06:51:06;;;;;;;26.00;16.30;;;2.90;99.90;;;;;;5101602;28;20386;-67
2024/03/08 06:53:32;;;;;;;24.15;16.55;;;3.20;99.90;;;;;;5130284;27;20046;-67
2024/03/08 06:55:58;;;;;;;21.30;17.63;;;3.40;99.90;;;;;;5142053;27;20047;-67
2024/03/08 06:58:24;;;;;;;20.00;16.05;;;3.50;99.90;;;;;;5131968;27;20054;-67
2024/03/08 07:00:53;;;;;;;20.15;16.30;;;3.60;99.90;;;;;;5100147;27;20035;-67
2024/03/08 07:03:19;;;;;;;21.85;16.92;;;3.60;99.90;;;;;;5119625;27;20039;-67
2024/03/08 07:05:44;;;;;;;24.33;16.85;;;3.60;99.90;;;;;;5121104;27;20118;-67
2024/03/08 07:08:10;;;;;;;20.92;16.52;;;3.70;99.90;;;;;;5137948;27;20173;-67
2024/03/08 07:10:37;;;;;;;20.70;16.58;;;3.70;99.90;;;;;;5104258;27;20069;-67
2024/03/08 07:13:03;;;;;;;19.92;16.20;;;3.80;99.90;;;;;;5106117;27;20047;-67
2024/03/08 07:15:28;;;;;;;24.50;17.55;;;3.90;99.90;;;;;;5101051;27;20042;-67
2024/03/08 07:17:54;;;;;;;21.08;15.38;;;4.00;99.90;;;;;;5106511;27;20050;-67
2024/03/08 07:20:21;;;;;;;20.40;16.95;;;4.00;99.90;;;;;;5139194;27;20039;-67
2024/03/08 07:22:47;;;;;;;22.77;15.48;;;4.00;99.90;;;;;;5138690;27;20045;-66
2024/03/08 07:25:20;;;;;;;20.90;15.98;;;3.90;99.90;;;;;;5140845;27;20032;-66
2024/03/08 07:27:47;;;;;;;20.90;15.63;;;3.90;99.90;;;;;;5139311;27;20481;-66
2024/03/08 07:30:40;;;;;;;19.90;15.95;;;3.80;99.90;;;;;;5120279;27;20043;-67
2024/03/08 07:32:58;;;;;;;19.60;16.67;;;3.90;99.90;;;;;;5104158;27;20047;-67
2024/03/08 07:35:26;;;;;;;21.48;16.90;;;3.80;99.90;;;;;;5100080;27;20046;-67
2024/03/08 07:37:54;;;;;;;22.25;16.83;;;3.50;99.90;;;;;;5104086;27;20044;-66
2024/03/08 07:40:23;;;;;;;28.98;17.55;;;3.40;99.90;;;;;;5107488;27;20068;-67
2024/03/08 07:42:52;;;;;;;21.50;16.77;;;3.40;99.90;;;;;;5103936;27;20035;-67
2024/03/08 07:45:18;;;;;;;23.88;18.05;;;3.30;99.90;;;;;;5136233;27;20035;-66
2024/03/08 07:47:44;;;;;;;20.10;17.33;;;3.20;99.90;;;;;;5125203;27;20047;-66
2024/03/08 07:50:10;;;;;;;20.30;16.85;;;3.10;99.90;;;;;;5119142;27;20043;-66
2024/03/08 07:52:36;;;;;;;22.63;17.33;;;3.10;99.90;;;;;;5102324;27;20046;-67
2024/03/08 07:55:05;;;;;;;21.20;15.98;;;3.00;99.90;;;;;;5108738;27;20042;-66
2024/03/08 07:57:31;;;;;;;21.77;17.30;;;3.00;99.90;;;;;;5142037;27;20036;-66
2024/03/08 07:59:57;;;;;;;25.02;17.95;;;3.00;99.90;;;;;;5106699;27;20039;-66
2024/03/08 08:02:23;;;;;;;21.30;17.60;;;3.00;99.90;;;;;;5094397;27;20488;-67
2024/03/08 08:04:49;;;;;;;23.55;17.13;;;3.10;99.90;;;;;;5145510;27;20069;-66
2024/03/08 08:07:14;;;;;;;22.27;16.95;;;3.10;99.90;;;;;;5112644;27;20117;-66
2024/03/08 08:09:42;;;;;;;23.02;17.92;;;3.10;99.90;;;;;;5138787;27;20107;-66
2024/03/08 08:12:11;;;;;;;21.38;17.70;;;3.10;99.90;;;;;;5141910;27;20047;-66
2024/03/08 08:14:38;;;;;;;23.17;17.70;;;3.20;99.90;;;;;;5098088;27;20138;-66
2024/03/08 08:17:05;;;;;;;23.33;18.58;;;3.20;99.90;;;;;;5136535;27;20067;-66
2024/03/08 08:19:31;;;;;;;21.75;17.92;;;3.30;99.90;;;;;;5133107;27;20411;-66
2024/03/08 08:21:57;;;;;;;22.55;17.02;;;3.30;99.90;;;;;;5103287;27;20122;-66
2024/03/08 08:24:23;;;;;;;23.27;17.95;;;3.30;99.90;;;;;;5104185;27;20044;-66
2024/03/08 08:26:49;;;;;;;22.20;17.33;;;3.00;99.90;;;;;;5134481;27;20047;-66
2024/03/08 08:29:14;;;;;;;23.60;18.10;;;3.40;99.90;;;;;;5122174;27;20084;-66
2024/03/08 08:31:40;;;;;;;21.98;17.27;;;3.40;99.90;;;;;;5103611;27;20031;-66
2024/03/08 08:34:06;;;;;;;23.70;17.17;;;3.50;99.90;;;;;;5128533;27;20039;-66
2024/03/08 08:36:33;;;;;;;22.20;18.38;;;3.50;99.90;;;;;;5106960;27;20042;-66
2024/03/08 08:38:59;;;;;;;22.60;18.17;;;3.50;99.90;;;;;;5134451;27;20220;-66
2024/03/08 08:41:26;;;;;;;24.85;19.05;;;3.60;99.90;;;;;;5121508;27;20459;-66
2024/03/08 08:43:52;;;;;;;23.38;19.25;;;3.70;99.90;;;;;;5130667;27;20104;-66
2024/03/08 08:46:18;;;;;;;22.55;18.40;;;3.70;99.90;;;;;;5100608;27;20121;-66
2024/03/08 08:48:45;;;;;;;23.95;18.92;;;3.80;99.90;;;;;;5130534;27;20942;-66
2024/03/08 08:51:15;;;;;;;25.23;18.38;;;3.80;99.90;;;;;;5101715;27;20489;-66
2024/03/08 08:53:42;;;;;;;28.75;18.67;;;3.90;99.90;;;;;;5119382;27;20035;-66
2024/03/08 08:56:12;;;;;;;23.55;17.80;;;3.90;99.90;;;;;;5128724;27;20155;-66
2024/03/08 08:58:42;;;;;;;23.30;18.30;;;3.90;99.90;;;;;;5118277;27;20039;-66
2024/03/08 09:01:09;;;;;;;21.55;18.40;;;4.00;99.90;;;;;;5123290;27;20036;-66
2024/03/08 09:03:36;;;;;;;26.33;19.30;;;4.00;99.90;;;;;;5120609;27;20044;-66
2024/03/08 09:06:12;;;;;;;22.20;18.58;;;4.10;99.90;;;;;;5137379;27;20387;-66
2024/03/08 09:08:38;;;;;;;22.98;18.85;;;4.20;99.90;;;;;;5132023;27;20044;-66
2024/03/08 09:11:05;;;;;;;27.38;21.02;;;4.30;99.90;;;;;;5120678;27;20743;-66
2024/03/08 09:13:31;;;;;;;22.45;18.60;;;4.30;99.90;;;;;;5120450;27;20043;-66
2024/03/08 09:15:57;;;;;;;32.72;20.25;;;4.30;99.90;;;;;;5120375;27;20054;-66
2024/03/08 09:18:24;;;;;;;31.83;18.92;;;4.40;99.90;;;;;;5129997;27;20044;-66
2024/03/08 09:20:50;;;;;;;23.88;18.92;;;4.40;99.90;;;;;;5124612;27;20034;-66
2024/03/08 09:23:19;;;;;;;25.83;18.58;;;4.40;99.90;;;;;;5100597;27;20046;-66
2024/03/08 09:25:46;;;;;;;23.77;18.15;;;4.50;99.90;;;;;;5134655;27;20055;-66
2024/03/08 09:28:12;;;;;;;22.40;19.33;;;4.60;99.90;;;;;;5097852;27;20068;-66
2024/03/08 09:30:38;;;;;;;22.80;17.73;;;4.60;99.90;;;;;;5097967;27;20171;-66
2024/03/08 09:33:05;;;;;;;22.02;18.95;;;4.60;99.90;;;;;;5121424;27;20126;-66
2024/03/08 09:35:31;;;;;;;23.20;17.70;;;4.70;99.90;;;;;;5116617;27;20039;-66
2024/03/08 09:37:57;;;;;;;26.58;19.10;;;4.70;99.90;;;;;;5137952;27;20140;-67
2024/03/08 09:40:25;;;;;;;23.90;18.73;;;4.80;99.90;;;;;;5118904;27;20501;-66
2024/03/08 09:42:52;;;;;;;25.92;19.83;;;4.90;99.90;;;;;;5097116;27;20035;-66
2024/03/08 09:45:22;;;;;;;22.40;18.58;;;4.90;99.90;;;;;;5093827;27;20039;-66
2024/03/08 09:47:48;;;;;;;21.60;18.88;;;4.90;99.90;;;;;;5119974;27;20039;-66
2024/03/08 09:50:14;;;;;;;21.80;18.63;;;4.90;99.90;;;;;;5131127;27;20047;-66
2024/03/08 09:52:40;;;;;;;23.85;19.38;;;5.00;99.90;;;;;;5118352;27;20031;-66
2024/03/08 09:55:07;;;;;;;22.92;19.33;;;5.10;99.90;;;;;;5086721;27;20035;-66
2024/03/08 09:57:36;;;;;;;21.25;18.33;;;5.20;99.90;;;;;;5135654;27;20142;-66
2024/03/08 10:00:06;;;;;;;24.88;20.38;;;5.20;99.90;;;;;;5126642;27;20040;-66
2024/03/08 10:02:34;;;;;;;21.98;18.45;;;5.30;99.90;;;;;;5117283;27;20164;-66
2024/03/08 10:05:03;;;;;;;23.17;19.55;;;5.50;99.90;;;;;;5098791;27;20118;-66
2024/03/08 10:07:29;;;;;;;23.23;18.75;;;5.50;99.90;;;;;;5135653;27;20051;-66
2024/03/08 10:09:54;;;;;;;25.95;20.35;;;5.60;99.90;;;;;;5113554;27;20038;-66
2024/03/08 10:12:21;;;;;;;22.88;18.90;;;5.60;99.90;;;;;;5118974;27;20071;-66
2024/03/08 10:14:46;;;;;;;23.52;19.38;;;5.70;99.90;;;;;;5127411;27;20043;-66
2024/03/08 10:17:12;;;;;;;20.70;17.25;;;5.60;99.90;;;;;;5120223;27;20489;-66
2024/03/08 10:19:38;;;;;;;23.73;18.08;;;5.80;99.90;;;;;;5119449;27;20556;-66
2024/03/08 10:22:05;;;;;;;20.27;16.17;;;5.80;99.90;;;;;;5133754;27;20070;-66
2024/03/08 10:24:33;;;;;;;22.88;18.00;;;5.80;99.90;;;;;;5120527;27;20035;-66
2024/03/08 10:27:04;;;;;;;23.63;19.95;;;5.90;99.90;;;;;;5114379;27;20047;-66
2024/03/08 10:29:32;;;;;;;23.00;18.15;;;6.00;99.90;;;;;;5093992;28;20055;-66
2024/03/08 10:31:58;;;;;;;22.58;18.70;;;6.10;99.90;;;;;;5116235;27;20047;-66
2024/03/08 10:34:25;;;;;;;21.17;18.10;;;6.10;99.90;;;;;;5111324;27;20388;-66
2024/03/08 10:36:52;;;;;;;21.98;18.33;;;6.20;99.90;;;;;;5115173;27;20061;-67
2024/03/08 10:39:19;;;;;;;23.48;18.08;;;6.30;99.90;;;;;;5125247;27;20031;-66
2024/03/08 10:42:13;;;;;;;20.38;17.65;;;6.30;99.90;;;;;;5132496;27;20108;-66
2024/03/08 10:45:27;;;;;;;20.67;18.48;;;6.30;99.90;;;;;;5094940;27;20612;-66
2024/03/08 10:48:22;;;;;;;21.58;18.15;;;6.40;99.90;;;;;;5109748;28;20100;-66
2024/03/08 10:50:50;;;;;;;21.98;16.58;;;6.40;99.90;;;;;;5132997;27;20050;-66
2024/03/08 10:53:18;;;;;;;18.67;16.67;;;6.50;99.90;;;;;;5130272;27;20103;-66
2024/03/08 10:55:44;;;;;;;21.88;18.52;;;6.50;99.90;;;;;;5106191;27;20050;-66
2024/03/08 10:58:10;;;;;;;21.40;17.85;;;6.60;99.90;;;;;;5099611;27;20583;-66
2024/03/08 11:00:36;;;;;;;23.08;17.40;;;6.70;99.90;;;;;;5105175;27;20035;-66
2024/03/08 11:03:03;;;;;;;21.73;18.40;;;6.80;99.90;;;;;;5137617;27;20035;-66
2024/03/08 11:05:42;;;;;;;22.73;17.85;;;6.90;99.90;;;;;;5102504;27;20655;-67
2024/03/08 11:08:20;;;;;;;20.30;18.15;;;7.00;99.90;;;;;;5121555;27;20845;-66
2024/03/08 11:10:55;;;;;;;21.88;18.30;;;7.00;99.90;;;;;;5117339;27;20104;-66
2024/03/08 11:13:36;;;;;;;19.13;16.95;;;7.10;99.90;;;;;;5105512;27;20045;-66
2024/03/08 11:16:11;;;;;;;20.52;16.95;;;7.20;99.90;;;;;;5134630;27;20078;-66
2024/03/08 11:18:38;;;;;;;25.08;18.95;;;7.20;99.90;;;;;;5101213;27;20043;-67
2024/03/08 11:21:10;;;;;;;21.90;17.75;;;7.30;99.90;;;;;;5121696;27;20042;-67
2024/03/08 11:23:36;;;;;;;20.08;16.90;;;7.40;99.90;;;;;;5123856;27;20038;-66
2024/03/08 11:26:04;;;;;;;19.35;17.05;;;7.50;99.90;;;;;;5103657;27;20386;-66
2024/03/08 11:28:31;;;;;;;19.83;17.60;;;7.50;99.90;;;;;;5124505;27;20097;-66
2024/03/08 11:31:00;;;;;;;23.35;17.10;;;7.60;99.90;;;;;;5126115;27;20082;-67
2024/03/08 11:33:30;;;;;;;20.95;16.88;;;7.70;99.90;;;;;;5105763;27;20043;-67
2024/03/08 11:36:24;;;;;;;21.02;17.05;;;7.70;99.90;;;;;;5132198;27;20053;-67
2024/03/08 11:38:52;;;;;;;19.65;17.10;;;7.80;99.90;;;;;;5094773;27;20056;-67
2024/03/08 11:41:20;;;;;;;19.70;17.52;;;7.70;99.90;;;;;;5099015;27;20074;-66
2024/03/08 11:44:01;;;;;;;23.13;17.00;;;7.80;99.90;;;;;;5096480;27;20070;-67
2024/03/08 11:46:28;;;;;;;20.70;18.02;;;7.80;99.90;;;;;;5102388;27;20526;-66
2024/03/08 11:48:55;;;;;;;22.58;19.38;;;7.90;99.90;;;;;;5099411;27;20043;-66
2024/03/08 11:51:21;;;;;;;21.73;17.55;;;7.90;99.90;;;;;;5124622;27;20031;-66
2024/03/08 11:53:52;;;;;;;17.25;15.50;;;7.90;99.90;;;;;;5128234;27;20046;-66
2024/03/08 11:56:20;;;;;;;19.10;16.98;;;8.00;99.90;;;;;;5102572;27;20030;-66
2024/03/08 11:58:57;;;;;;;21.85;15.95;;;8.10;99.90;;;;;;5119518;27;20101;-66
2024/03/08 12:01:23;;;;;;;20.50;16.85;;;8.10;99.90;;;;;;5137524;27;20054;-66
2024/03/08 12:03:58;;;;;;;19.00;16.55;;;8.00;99.90;;;;;;5102883;27;20572;-66
2024/03/08 12:06:25;;;;;;;20.05;17.33;;;8.10;99.90;;;;;;5102451;27;20047;-66
2024/03/08 12:08:51;;;;;;;20.50;18.38;;;8.20;99.90;;;;;;5119161;27;20039;-66
2024/03/08 12:11:23;;;;;;;20.38;16.70;;;8.20;99.90;;;;;;5120323;27;20058;-66
2024/03/08 12:13:51;;;;;;;18.58;16.52;;;8.30;99.90;;;;;;5127190;27;20042;-66
2024/03/08 12:16:17;;;;;;;18.33;16.42;;;8.40;99.90;;;;;;5116667;27;20042;-66
2024/03/08 12:18:44;;;;;;;20.25;16.17;;;8.50;99.90;;;;;;5103985;27;20047;-67
2024/03/08 12:21:12;;;;;;;20.45;17.52;;;8.50;99.90;;;;;;5121956;27;20079;-66
2024/03/08 12:23:41;;;;;;;20.30;17.48;;;8.50;99.90;;;;;;5120452;27;20042;-67
2024/03/08 12:26:23;;;;;;;19.58;17.60;;;8.50;99.90;;;;;;5102148;27;20036;-67
2024/03/08 12:28:49;;;;;;;19.63;16.98;;;8.60;99.90;;;;;;5101317;27;20050;-66
2024/03/08 12:31:22;;;;;;;18.80;15.95;;;8.70;99.90;;;;;;5120608;27;20397;-66
2024/03/08 12:33:51;;;;;;;19.05;15.43;;;8.70;99.90;;;;;;5114460;27;20752;-66
2024/03/08 12:36:19;;;;;;;19.35;16.67;;;8.70;99.90;;;;;;5122549;27;20039;-66
2024/03/08 12:38:49;;;;;;;19.90;17.85;;;8.80;99.90;;;;;;5102251;27;20047;-67
2024/03/08 12:41:19;;;;;;;19.55;16.20;;;8.70;99.90;;;;;;5103284;27;20031;-66
2024/03/08 12:43:51;;;;;;;20.10;16.83;;;8.70;99.90;;;;;;5132647;27;20039;-67